Terminal Aerodrome Forecast
Issued by NWS

Home | Current Version | Previous Version | Text Only | Print | Product List | Glossary On
Versions: 1 2 3 4 5 6 7 8 9 10 11 12 13 14 15 16 17
000
FTUS42 TJSJ 301720
TAFJSJ
TAF
TJSJ 301720Z 3018/0118 08015G23KT P6SM VCSH SCT025 SCT050 SCT070
     FM302200 09012KT P6SM SCT030
     FM011300 12013KT P6SM FEW025 SCT060=

USA.gov is the U.S. government's official web portal to all federal, state and local government web resources and services.